sensor_id;sensor_type;location;lat;lon;timestamp;P1;durP1;ratioP1;P2;durP2;ratioP2
69188;SDS011;56302;52.322;5.926;2024-03-02T00:02:06;3.83;;;1.60;;
69188;SDS011;56302;52.322;5.926;2024-03-02T00:04:32;3.97;;;1.30;;
69188;SDS011;56302;52.322;5.926;2024-03-02T00:06:57;2.85;;;1.38;;
69188;SDS011;56302;52.322;5.926;2024-03-02T00:09:23;3.90;;;1.27;;
69188;SDS011;56302;52.322;5.926;2024-03-02T00:11:49;4.03;;;1.37;;
69188;SDS011;56302;52.322;5.926;2024-03-02T00:14:15;2.42;;;1.02;;
69188;SDS011;56302;52.322;5.926;2024-03-02T00:16:41;4.90;;;1.65;;
69188;SDS011;56302;52.322;5.926;2024-03-02T00:19:07;2.83;;;1.30;;
69188;SDS011;56302;52.322;5.926;2024-03-02T00:21:34;2.45;;;0.77;;
69188;SDS011;56302;52.322;5.926;2024-03-02T00:24:00;6.80;;;1.50;;
69188;SDS011;56302;52.322;5.926;2024-03-02T00:26:47;4.30;;;1.27;;
69188;SDS011;56302;52.322;5.926;2024-03-02T00:29:16;3.83;;;1.20;;
69188;SDS011;56302;52.322;5.926;2024-03-02T00:31:44;4.85;;;1.30;;
69188;SDS011;56302;52.322;5.926;2024-03-02T00:34:10;4.03;;;1.37;;
69188;SDS011;56302;52.322;5.926;2024-03-02T00:36:41;4.63;;;1.52;;
69188;SDS011;56302;52.322;5.926;2024-03-02T00:39:07;3.78;;;1.40;;
69188;SDS011;56302;52.322;5.926;2024-03-02T00:41:33;6.30;;;1.30;;
69188;SDS011;56302;52.322;5.926;2024-03-02T00:46:35;6.05;;;1.50;;
69188;SDS011;56302;52.322;5.926;2024-03-02T00:49:10;4.30;;;1.13;;
69188;SDS011;56302;52.322;5.926;2024-03-02T00:51:37;3.17;;;1.33;;
69188;SDS011;56302;52.322;5.926;2024-03-02T00:54:07;3.75;;;1.50;;
69188;SDS011;56302;52.322;5.926;2024-03-02T00:56:34;3.63;;;1.30;;
69188;SDS011;56302;52.322;5.926;2024-03-02T00:59:00;4.03;;;1.20;;
69188;SDS011;56302;52.322;5.926;2024-03-02T01:01:26;4.30;;;1.65;;
69188;SDS011;56302;52.322;5.926;2024-03-02T01:03:52;6.40;;;1.10;;
69188;SDS011;56302;52.322;5.926;2024-03-02T01:06:18;4.57;;;1.42;;
69188;SDS011;56302;52.322;5.926;2024-03-02T01:08:44;3.47;;;1.38;;
69188;SDS011;56302;52.322;5.926;2024-03-02T01:11:09;3.42;;;1.20;;
69188;SDS011;56302;52.322;5.926;2024-03-02T01:13:35;4.23;;;1.10;;
69188;SDS011;56302;52.322;5.926;2024-03-02T01:16:01;6.70;;;2.25;;
69188;SDS011;56302;52.322;5.926;2024-03-02T01:18:27;4.03;;;1.40;;
69188;SDS011;56302;52.322;5.926;2024-03-02T01:20:53;3.53;;;0.90;;
69188;SDS011;56302;52.322;5.926;2024-03-02T01:23:23;3.63;;;1.20;;
69188;SDS011;56302;52.322;5.926;2024-03-02T01:25:50;3.85;;;1.45;;
69188;SDS011;56302;52.322;5.926;2024-03-02T01:28:17;3.93;;;1.33;;
69188;SDS011;56302;52.322;5.926;2024-03-02T01:30:43;3.35;;;1.00;;
69188;SDS011;56302;52.322;5.926;2024-03-02T01:33:09;2.90;;;1.13;;
69188;SDS011;56302;52.322;5.926;2024-03-02T01:35:35;2.63;;;0.77;;
69188;SDS011;56302;52.322;5.926;2024-03-02T01:38:00;5.78;;;1.95;;
69188;SDS011;56302;52.322;5.926;2024-03-02T01:40:26;3.80;;;1.10;;
69188;SDS011;56302;52.322;5.926;2024-03-02T01:42:53;2.95;;;1.10;;
69188;SDS011;56302;52.322;5.926;2024-03-02T01:45:19;4.63;;;1.38;;
69188;SDS011;56302;52.322;5.926;2024-03-02T01:47:45;5.97;;;0.98;;
69188;SDS011;56302;52.322;5.926;2024-03-02T01:50:11;5.03;;;1.80;;
69188;SDS011;56302;52.322;5.926;2024-03-02T01:52:38;2.88;;;1.00;;
69188;SDS011;56302;52.322;5.926;2024-03-02T01:55:05;2.45;;;1.15;;
69188;SDS011;56302;52.322;5.926;2024-03-02T01:57:31;3.78;;;1.30;;
69188;SDS011;56302;52.322;5.926;2024-03-02T01:59:57;3.25;;;1.15;;
69188;SDS011;56302;52.322;5.926;2024-03-02T02:02:23;2.30;;;0.90;;
69188;SDS011;56302;52.322;5.926;2024-03-02T02:04:49;4.47;;;1.30;;
69188;SDS011;56302;52.322;5.926;2024-03-02T02:07:14;3.07;;;1.30;;
69188;SDS011;56302;52.322;5.926;2024-03-02T02:09:43;2.25;;;0.95;;
69188;SDS011;56302;52.322;5.926;2024-03-02T02:12:09;1.92;;;0.85;;
69188;SDS011;56302;52.322;5.926;2024-03-02T02:14:35;2.45;;;0.70;;
69188;SDS011;56302;52.322;5.926;2024-03-02T02:17:01;2.28;;;0.80;;
69188;SDS011;56302;52.322;5.926;2024-03-02T02:19:27;2.80;;;0.90;;
69188;SDS011;56302;52.322;5.926;2024-03-02T02:21:53;5.47;;;1.10;;
69188;SDS011;56302;52.322;5.926;2024-03-02T02:24:19;2.85;;;1.00;;
69188;SDS011;56302;52.322;5.926;2024-03-02T02:26:45;2.10;;;0.80;;
69188;SDS011;56302;52.322;5.926;2024-03-02T02:29:10;2.42;;;0.95;;
69188;SDS011;56302;52.322;5.926;2024-03-02T02:31:37;2.70;;;1.07;;
69188;SDS011;56302;52.322;5.926;2024-03-02T02:34:04;2.20;;;0.80;;
69188;SDS011;56302;52.322;5.926;2024-03-02T02:36:29;3.42;;;0.70;;
69188;SDS011;56302;52.322;5.926;2024-03-02T02:38:55;2.55;;;0.70;;
69188;SDS011;56302;52.322;5.926;2024-03-02T02:41:21;2.30;;;0.80;;
69188;SDS011;56302;52.322;5.926;2024-03-02T02:43:47;3.17;;;0.80;;
69188;SDS011;56302;52.322;5.926;2024-03-02T02:46:13;2.10;;;0.87;;
69188;SDS011;56302;52.322;5.926;2024-03-02T02:48:38;1.83;;;0.75;;
69188;SDS011;56302;52.322;5.926;2024-03-02T02:51:04;2.90;;;0.73;;
69188;SDS011;56302;52.322;5.926;2024-03-02T02:53:29;2.77;;;0.80;;
69188;SDS011;56302;52.322;5.926;2024-03-02T02:55:55;3.42;;;0.50;;
69188;SDS011;56302;52.322;5.926;2024-03-02T02:58:20;2.63;;;0.70;;
69188;SDS011;56302;52.322;5.926;2024-03-02T03:00:46;2.10;;;0.53;;
69188;SDS011;56302;52.322;5.926;2024-03-02T03:03:12;5.38;;;0.60;;
69188;SDS011;56302;52.322;5.926;2024-03-02T03:05:37;1.30;;;0.60;;
69188;SDS011;56302;52.322;5.926;2024-03-02T03:08:03;1.63;;;0.60;;
69188;SDS011;56302;52.322;5.926;2024-03-02T03:10:29;1.83;;;0.55;;
69188;SDS011;56302;52.322;5.926;2024-03-02T03:12:54;3.47;;;0.50;;
69188;SDS011;56302;52.322;5.926;2024-03-02T03:15:21;2.35;;;0.52;;
69188;SDS011;56302;52.322;5.926;2024-03-02T03:17:46;2.20;;;0.65;;
69188;SDS011;56302;52.322;5.926;2024-03-02T03:20:12;1.67;;;0.50;;
69188;SDS011;56302;52.322;5.926;2024-03-02T03:22:39;1.23;;;0.50;;
69188;SDS011;56302;52.322;5.926;2024-03-02T03:25:04;1.23;;;0.47;;
69188;SDS011;56302;52.322;5.926;2024-03-02T03:27:30;1.35;;;0.60;;
69188;SDS011;56302;52.322;5.926;2024-03-02T03:29:57;1.40;;;0.50;;
69188;SDS011;56302;52.322;5.926;2024-03-02T03:32:22;1.50;;;0.70;;
69188;SDS011;56302;52.322;5.926;2024-03-02T03:34:48;1.60;;;0.60;;
69188;SDS011;56302;52.322;5.926;2024-03-02T03:37:14;2.13;;;0.50;;
69188;SDS011;56302;52.322;5.926;2024-03-02T03:39:40;1.48;;;0.55;;
69188;SDS011;56302;52.322;5.926;2024-03-02T03:42:06;1.87;;;0.67;;
69188;SDS011;56302;52.322;5.926;2024-03-02T03:44:31;2.05;;;0.60;;
69188;SDS011;56302;52.322;5.926;2024-03-02T03:46:57;2.15;;;0.60;;
69188;SDS011;56302;52.322;5.926;2024-03-02T03:49:23;1.50;;;0.68;;
69188;SDS011;56302;52.322;5.926;2024-03-02T03:51:49;1.10;;;0.50;;
69188;SDS011;56302;52.322;5.926;2024-03-02T03:54:14;1.10;;;0.50;;
69188;SDS011;56302;52.322;5.926;2024-03-02T03:56:40;1.30;;;0.50;;
69188;SDS011;56302;52.322;5.926;2024-03-02T03:59:05;1.33;;;0.60;;
69188;SDS011;56302;52.322;5.926;2024-03-02T04:01:31;1.65;;;0.63;;
69188;SDS011;56302;52.322;5.926;2024-03-02T04:03:57;1.20;;;0.40;;
69188;SDS011;56302;52.322;5.926;2024-03-02T04:06:23;1.10;;;0.60;;
69188;SDS011;56302;52.322;5.926;2024-03-02T04:08:48;2.40;;;0.63;;
69188;SDS011;56302;52.322;5.926;2024-03-02T04:11:14;1.13;;;0.60;;
69188;SDS011;56302;52.322;5.926;2024-03-02T04:13:40;1.40;;;0.60;;
69188;SDS011;56302;52.322;5.926;2024-03-02T04:16:05;1.15;;;0.50;;
69188;SDS011;56302;52.322;5.926;2024-03-02T04:18:31;1.63;;;0.63;;
69188;SDS011;56302;52.322;5.926;2024-03-02T04:21:00;1.85;;;0.60;;
69188;SDS011;56302;52.322;5.926;2024-03-02T04:23:28;1.83;;;0.63;;
69188;SDS011;56302;52.322;5.926;2024-03-02T04:25:54;2.65;;;0.80;;
69188;SDS011;56302;52.322;5.926;2024-03-02T04:28:19;1.67;;;0.50;;
69188;SDS011;56302;52.322;5.926;2024-03-02T04:30:45;1.80;;;0.80;;
69188;SDS011;56302;52.322;5.926;2024-03-02T04:33:11;2.03;;;0.60;;
69188;SDS011;56302;52.322;5.926;2024-03-02T04:35:36;1.40;;;0.40;;
69188;SDS011;56302;52.322;5.926;2024-03-02T04:38:02;1.43;;;0.60;;
69188;SDS011;56302;52.322;5.926;2024-03-02T04:40:28;1.60;;;0.60;;
69188;SDS011;56302;52.322;5.926;2024-03-02T04:42:53;2.13;;;0.57;;
69188;SDS011;56302;52.322;5.926;2024-03-02T04:45:19;1.98;;;0.60;;
69188;SDS011;56302;52.322;5.926;2024-03-02T04:47:45;1.93;;;0.60;;
69188;SDS011;56302;52.322;5.926;2024-03-02T04:50:10;2.30;;;0.80;;
69188;SDS011;56302;52.322;5.926;2024-03-02T04:52:36;1.80;;;0.73;;
69188;SDS011;56302;52.322;5.926;2024-03-02T04:55:02;1.30;;;0.60;;
69188;SDS011;56302;52.322;5.926;2024-03-02T04:57:46;2.30;;;0.60;;
69188;SDS011;56302;52.322;5.926;2024-03-02T05:00:12;1.73;;;0.70;;
69188;SDS011;56302;52.322;5.926;2024-03-02T05:02:38;1.35;;;0.50;;
69188;SDS011;56302;52.322;5.926;2024-03-02T05:05:04;1.50;;;0.63;;
69188;SDS011;56302;52.322;5.926;2024-03-02T05:07:29;1.52;;;0.57;;
69188;SDS011;56302;52.322;5.926;2024-03-02T05:09:55;1.60;;;0.63;;
69188;SDS011;56302;52.322;5.926;2024-03-02T05:12:21;2.73;;;0.70;;
69188;SDS011;56302;52.322;5.926;2024-03-02T05:15:10;1.55;;;0.60;;
69188;SDS011;56302;52.322;5.926;2024-03-02T05:17:37;1.25;;;0.50;;
69188;SDS011;56302;52.322;5.926;2024-03-02T05:20:05;2.47;;;0.63;;
69188;SDS011;56302;52.322;5.926;2024-03-02T05:22:35;2.60;;;0.60;;
69188;SDS011;56302;52.322;5.926;2024-03-02T05:25:01;1.47;;;0.50;;
69188;SDS011;56302;52.322;5.926;2024-03-02T05:27:27;1.48;;;0.50;;
69188;SDS011;56302;52.322;5.926;2024-03-02T05:29:53;2.35;;;0.65;;
69188;SDS011;56302;52.322;5.926;2024-03-02T05:32:18;2.97;;;0.57;;
69188;SDS011;56302;52.322;5.926;2024-03-02T05:34:44;0.90;;;0.40;;
69188;SDS011;56302;52.322;5.926;2024-03-02T05:37:10;1.50;;;0.60;;
69188;SDS011;56302;52.322;5.926;2024-03-02T05:39:36;1.73;;;0.70;;
69188;SDS011;56302;52.322;5.926;2024-03-02T05:42:01;1.92;;;0.65;;
69188;SDS011;56302;52.322;5.926;2024-03-02T05:44:28;1.55;;;0.60;;
69188;SDS011;56302;52.322;5.926;2024-03-02T05:46:54;1.20;;;0.50;;
69188;SDS011;56302;52.322;5.926;2024-03-02T05:49:20;3.08;;;0.70;;
69188;SDS011;56302;52.322;5.926;2024-03-02T05:51:45;2.30;;;0.53;;
69188;SDS011;56302;52.322;5.926;2024-03-02T05:54:11;2.70;;;0.50;;
69188;SDS011;56302;52.322;5.926;2024-03-02T05:56:37;1.73;;;0.50;;
69188;SDS011;56302;52.322;5.926;2024-03-02T05:59:02;2.07;;;0.50;;
69188;SDS011;56302;52.322;5.926;2024-03-02T06:01:44;1.85;;;0.65;;
69188;SDS011;56302;52.322;5.926;2024-03-02T06:04:17;2.92;;;0.55;;
69188;SDS011;56302;52.322;5.926;2024-03-02T06:06:43;1.50;;;0.60;;
69188;SDS011;56302;52.322;5.926;2024-03-02T06:09:09;1.92;;;0.50;;
69188;SDS011;56302;52.322;5.926;2024-03-02T06:11:37;2.10;;;0.75;;
69188;SDS011;56302;52.322;5.926;2024-03-02T06:14:04;1.40;;;0.60;;
69188;SDS011;56302;52.322;5.926;2024-03-02T06:16:31;1.67;;;0.90;;
69188;SDS011;56302;52.322;5.926;2024-03-02T06:18:57;1.30;;;0.50;;
69188;SDS011;56302;52.322;5.926;2024-03-02T06:21:26;1.35;;;0.57;;
69188;SDS011;56302;52.322;5.926;2024-03-02T06:23:52;4.60;;;0.73;;
69188;SDS011;56302;52.322;5.926;2024-03-02T06:26:18;2.13;;;0.70;;
69188;SDS011;56302;52.322;5.926;2024-03-02T06:28:44;1.08;;;0.50;;
69188;SDS011;56302;52.322;5.926;2024-03-02T06:31:10;2.25;;;0.60;;
69188;SDS011;56302;52.322;5.926;2024-03-02T06:33:36;2.97;;;0.60;;
69188;SDS011;56302;52.322;5.926;2024-03-02T06:36:02;2.40;;;0.80;;
69188;SDS011;56302;52.322;5.926;2024-03-02T06:38:27;3.05;;;0.63;;
69188;SDS011;56302;52.322;5.926;2024-03-02T06:40:53;1.70;;;0.70;;
69188;SDS011;56302;52.322;5.926;2024-03-02T06:43:20;2.72;;;0.63;;
69188;SDS011;56302;52.322;5.926;2024-03-02T06:45:48;2.10;;;0.80;;
69188;SDS011;56302;52.322;5.926;2024-03-02T06:48:14;3.03;;;0.68;;
69188;SDS011;56302;52.322;5.926;2024-03-02T06:50:44;3.17;;;0.65;;
69188;SDS011;56302;52.322;5.926;2024-03-02T06:53:13;2.20;;;0.50;;
69188;SDS011;56302;52.322;5.926;2024-03-02T06:55:42;1.83;;;0.68;;
69188;SDS011;56302;52.322;5.926;2024-03-02T06:58:09;2.65;;;0.70;;
69188;SDS011;56302;52.322;5.926;2024-03-02T07:00:35;1.80;;;0.50;;
69188;SDS011;56302;52.322;5.926;2024-03-02T07:03:01;2.33;;;0.73;;
69188;SDS011;56302;52.322;5.926;2024-03-02T07:05:27;3.45;;;0.80;;
69188;SDS011;56302;52.322;5.926;2024-03-02T07:07:53;1.97;;;0.70;;
69188;SDS011;56302;52.322;5.926;2024-03-02T07:10:18;2.17;;;0.60;;
69188;SDS011;56302;52.322;5.926;2024-03-02T07:12:44;1.83;;;0.50;;
69188;SDS011;56302;52.322;5.926;2024-03-02T07:15:09;2.40;;;0.60;;
69188;SDS011;56302;52.322;5.926;2024-03-02T07:17:53;2.72;;;0.60;;
69188;SDS011;56302;52.322;5.926;2024-03-02T07:20:19;4.93;;;0.82;;
69188;SDS011;56302;52.322;5.926;2024-03-02T07:22:44;2.47;;;0.80;;
69188;SDS011;56302;52.322;5.926;2024-03-02T07:25:10;2.83;;;0.70;;
69188;SDS011;56302;52.322;5.926;2024-03-02T07:27:36;3.40;;;1.05;;
69188;SDS011;56302;52.322;5.926;2024-03-02T07:30:02;1.90;;;0.47;;
69188;SDS011;56302;52.322;5.926;2024-03-02T07:32:28;2.45;;;0.70;;
69188;SDS011;56302;52.322;5.926;2024-03-02T07:34:54;3.25;;;0.70;;
69188;SDS011;56302;52.322;5.926;2024-03-02T07:37:20;2.70;;;0.60;;
69188;SDS011;56302;52.322;5.926;2024-03-02T07:39:46;3.38;;;0.60;;
69188;SDS011;56302;52.322;5.926;2024-03-02T07:42:12;1.98;;;0.75;;
69188;SDS011;56302;52.322;5.926;2024-03-02T07:44:38;1.40;;;0.40;;
69188;SDS011;56302;52.322;5.926;2024-03-02T07:47:03;2.58;;;0.60;;
69188;SDS011;56302;52.322;5.926;2024-03-02T07:49:29;3.30;;;0.70;;
69188;SDS011;56302;52.322;5.926;2024-03-02T07:51:57;1.60;;;0.60;;
69188;SDS011;56302;52.322;5.926;2024-03-02T07:54:23;3.95;;;0.80;;
69188;SDS011;56302;52.322;5.926;2024-03-02T07:56:50;2.37;;;0.47;;
69188;SDS011;56302;52.322;5.926;2024-03-02T07:59:17;1.50;;;0.60;;
69188;SDS011;56302;52.322;5.926;2024-03-02T08:01:43;2.00;;;0.60;;
69188;SDS011;56302;52.322;5.926;2024-03-02T08:04:08;1.80;;;0.75;;
69188;SDS011;56302;52.322;5.926;2024-03-02T08:06:34;2.17;;;0.90;;
69188;SDS011;56302;52.322;5.926;2024-03-02T08:09:00;2.57;;;0.60;;
69188;SDS011;56302;52.322;5.926;2024-03-02T08:11:26;3.05;;;0.70;;
69188;SDS011;56302;52.322;5.926;2024-03-02T08:13:52;3.95;;;0.95;;
69188;SDS011;56302;52.322;5.926;2024-03-02T08:16:20;2.30;;;0.60;;
69188;SDS011;56302;52.322;5.926;2024-03-02T08:18:47;1.90;;;0.73;;
69188;SDS011;56302;52.322;5.926;2024-03-02T08:21:13;1.50;;;0.60;;
69188;SDS011;56302;52.322;5.926;2024-03-02T08:23:39;2.20;;;0.57;;
69188;SDS011;56302;52.322;5.926;2024-03-02T08:26:07;5.07;;;0.88;;
69188;SDS011;56302;52.322;5.926;2024-03-02T08:28:33;2.20;;;0.60;;
69188;SDS011;56302;52.322;5.926;2024-03-02T08:30:59;2.85;;;0.77;;
69188;SDS011;56302;52.322;5.926;2024-03-02T08:33:25;2.20;;;0.70;;
69188;SDS011;56302;52.322;5.926;2024-03-02T08:35:50;1.83;;;0.60;;
69188;SDS011;56302;52.322;5.926;2024-03-02T08:38:16;3.75;;;0.90;;
69188;SDS011;56302;52.322;5.926;2024-03-02T08:40:42;2.03;;;0.57;;
69188;SDS011;56302;52.322;5.926;2024-03-02T08:43:08;2.78;;;0.63;;
69188;SDS011;56302;52.322;5.926;2024-03-02T08:45:34;1.77;;;0.60;;
69188;SDS011;56302;52.322;5.926;2024-03-02T08:47:59;2.67;;;0.80;;
69188;SDS011;56302;52.322;5.926;2024-03-02T08:50:25;3.50;;;0.70;;
69188;SDS011;56302;52.322;5.926;2024-03-02T08:52:51;3.40;;;0.90;;
69188;SDS011;56302;52.322;5.926;2024-03-02T08:55:16;2.40;;;0.77;;
69188;SDS011;56302;52.322;5.926;2024-03-02T08:57:42;5.07;;;0.73;;
69188;SDS011;56302;52.322;5.926;2024-03-02T09:00:08;2.33;;;0.60;;
69188;SDS011;56302;52.322;5.926;2024-03-02T09:02:34;2.08;;;0.70;;
69188;SDS011;56302;52.322;5.926;2024-03-02T09:05:00;4.03;;;0.70;;
69188;SDS011;56302;52.322;5.926;2024-03-02T09:07:26;3.38;;;0.80;;
69188;SDS011;56302;52.322;5.926;2024-03-02T09:09:52;3.08;;;0.90;;
69188;SDS011;56302;52.322;5.926;2024-03-02T09:12:17;1.97;;;0.70;;
69188;SDS011;56302;52.322;5.926;2024-03-02T09:14:43;4.18;;;0.98;;
69188;SDS011;56302;52.322;5.926;2024-03-02T09:17:09;5.97;;;1.00;;
69188;SDS011;56302;52.322;5.926;2024-03-02T09:19:36;3.38;;;0.93;;
69188;SDS011;56302;52.322;5.926;2024-03-02T09:22:02;4.07;;;0.90;;
69188;SDS011;56302;52.322;5.926;2024-03-02T09:24:31;2.35;;;0.80;;
69188;SDS011;56302;52.322;5.926;2024-03-02T09:26:58;3.50;;;0.60;;
69188;SDS011;56302;52.322;5.926;2024-03-02T09:29:24;2.10;;;0.70;;
69188;SDS011;56302;52.322;5.926;2024-03-02T09:31:50;3.88;;;0.85;;
69188;SDS011;56302;52.322;5.926;2024-03-02T09:34:16;3.37;;;0.80;;
69188;SDS011;56302;52.322;5.926;2024-03-02T09:36:42;2.70;;;0.50;;
69188;SDS011;56302;52.322;5.926;2024-03-02T09:39:08;3.63;;;1.00;;
69188;SDS011;56302;52.322;5.926;2024-03-02T09:41:37;3.05;;;0.60;;
69188;SDS011;56302;52.322;5.926;2024-03-02T09:44:03;2.40;;;0.80;;
69188;SDS011;56302;52.322;5.926;2024-03-02T09:46:30;2.30;;;0.50;;
69188;SDS011;56302;52.322;5.926;2024-03-02T09:48:56;2.90;;;0.80;;
69188;SDS011;56302;52.322;5.926;2024-03-02T09:51:22;3.33;;;0.80;;
69188;SDS011;56302;52.322;5.926;2024-03-02T09:53:48;2.17;;;0.73;;
69188;SDS011;56302;52.322;5.926;2024-03-02T09:56:14;2.47;;;0.73;;
69188;SDS011;56302;52.322;5.926;2024-03-02T09:58:46;4.68;;;0.70;;
69188;SDS011;56302;52.322;5.926;2024-03-02T10:01:12;5.37;;;1.10;;
69188;SDS011;56302;52.322;5.926;2024-03-02T10:03:38;4.03;;;0.80;;
69188;SDS011;56302;52.322;5.926;2024-03-02T10:08:46;5.03;;;1.17;;
69188;SDS011;56302;52.322;5.926;2024-03-02T10:11:25;5.10;;;0.70;;
69188;SDS011;56302;52.322;5.926;2024-03-02T10:14:15;4.68;;;0.80;;
69188;SDS011;56302;52.322;5.926;2024-03-02T10:16:43;3.60;;;0.80;;
69188;SDS011;56302;52.322;5.926;2024-03-02T10:19:19;3.30;;;0.90;;
69188;SDS011;56302;52.322;5.926;2024-03-02T10:21:46;3.00;;;0.68;;
69188;SDS011;56302;52.322;5.926;2024-03-02T10:24:16;3.08;;;0.75;;
69188;SDS011;56302;52.322;5.926;2024-03-02T10:26:43;3.30;;;0.70;;
69188;SDS011;56302;52.322;5.926;2024-03-02T10:29:10;1.80;;;0.60;;
69188;SDS011;56302;52.322;5.926;2024-03-02T10:31:39;2.92;;;0.82;;
69188;SDS011;56302;52.322;5.926;2024-03-02T10:34:10;4.25;;;1.05;;
69188;SDS011;56302;52.322;5.926;2024-03-02T10:36:36;7.50;;;0.77;;
69188;SDS011;56302;52.322;5.926;2024-03-02T10:39:03;5.15;;;0.90;;
69188;SDS011;56302;52.322;5.926;2024-03-02T10:41:36;4.55;;;0.95;;
69188;SDS011;56302;52.322;5.926;2024-03-02T10:44:03;3.50;;;0.80;;
69188;SDS011;56302;52.322;5.926;2024-03-02T10:46:30;3.70;;;0.82;;
69188;SDS011;56302;52.322;5.926;2024-03-02T10:48:57;2.75;;;0.73;;
69188;SDS011;56302;52.322;5.926;2024-03-02T10:51:24;4.95;;;1.25;;
69188;SDS011;56302;52.322;5.926;2024-03-02T10:53:56;3.67;;;0.95;;
69188;SDS011;56302;52.322;5.926;2024-03-02T10:56:44;4.07;;;1.02;;
69188;SDS011;56302;52.322;5.926;2024-03-02T10:59:28;3.20;;;1.10;;
69188;SDS011;56302;52.322;5.926;2024-03-02T11:01:57;2.90;;;0.82;;
69188;SDS011;56302;52.322;5.926;2024-03-02T11:04:25;2.72;;;0.90;;
69188;SDS011;56302;52.322;5.926;2024-03-02T11:06:52;2.33;;;0.50;;
69188;SDS011;56302;52.322;5.926;2024-03-02T11:09:25;2.67;;;1.02;;
69188;SDS011;56302;52.322;5.926;2024-03-02T11:15:02;4.68;;;0.63;;
69188;SDS011;56302;52.322;5.926;2024-03-02T11:17:34;3.03;;;0.60;;
69188;SDS011;56302;52.322;5.926;2024-03-02T11:20:01;4.07;;;0.73;;
69188;SDS011;56302;52.322;5.926;2024-03-02T11:22:29;4.00;;;0.80;;
69188;SDS011;56302;52.322;5.926;2024-03-02T11:24:55;4.13;;;0.70;;
69188;SDS011;56302;52.322;5.926;2024-03-02T11:33:09;4.57;;;0.77;;
69188;SDS011;56302;52.322;5.926;2024-03-02T11:35:36;3.25;;;0.75;;
69188;SDS011;56302;52.322;5.926;2024-03-02T11:38:05;3.92;;;0.80;;
69188;SDS011;56302;52.322;5.926;2024-03-02T11:40:32;3.00;;;0.85;;
69188;SDS011;56302;52.322;5.926;2024-03-02T11:42:59;3.90;;;0.70;;
69188;SDS011;56302;52.322;5.926;2024-03-02T11:45:28;4.43;;;1.00;;
69188;SDS011;56302;52.322;5.926;2024-03-02T11:47:54;3.67;;;0.82;;
69188;SDS011;56302;52.322;5.926;2024-03-02T11:50:35;2.15;;;0.75;;
69188;SDS011;56302;52.322;5.926;2024-03-02T11:53:05;4.30;;;0.93;;
69188;SDS011;56302;52.322;5.926;2024-03-02T11:55:33;3.60;;;0.60;;
69188;SDS011;56302;52.322;5.926;2024-03-02T11:58:01;3.75;;;0.70;;
69188;SDS011;56302;52.322;5.926;2024-03-02T12:00:28;2.05;;;0.55;;
69188;SDS011;56302;52.322;5.926;2024-03-02T12:03:01;4.17;;;1.00;;
69188;SDS011;56302;52.322;5.926;2024-03-02T12:05:28;2.65;;;0.93;;
69188;SDS011;56302;52.322;5.926;2024-03-02T12:07:56;4.03;;;1.05;;
69188;SDS011;56302;52.322;5.926;2024-03-02T12:10:26;4.63;;;0.70;;
69188;SDS011;56302;52.322;5.926;2024-03-02T12:13:25;5.30;;;0.90;;
69188;SDS011;56302;52.322;5.926;2024-03-02T12:15:44;3.27;;;0.60;;
69188;SDS011;56302;52.322;5.926;2024-03-02T12:18:09;3.80;;;0.90;;
69188;SDS011;56302;52.322;5.926;2024-03-02T12:20:35;3.20;;;0.90;;
69188;SDS011;56302;52.322;5.926;2024-03-02T12:23:01;4.33;;;0.80;;
69188;SDS011;56302;52.322;5.926;2024-03-02T12:25:28;3.97;;;0.90;;
69188;SDS011;56302;52.322;5.926;2024-03-02T12:27:55;2.05;;;0.55;;
69188;SDS011;56302;52.322;5.926;2024-03-02T12:30:21;2.67;;;0.75;;
69188;SDS011;56302;52.322;5.926;2024-03-02T12:32:47;3.72;;;0.68;;
69188;SDS011;56302;52.322;5.926;2024-03-02T12:35:14;4.28;;;1.08;;
69188;SDS011;56302;52.322;5.926;2024-03-02T12:40:14;3.55;;;0.90;;
69188;SDS011;56302;52.322;5.926;2024-03-02T12:42:43;2.50;;;0.93;;
69188;SDS011;56302;52.322;5.926;2024-03-02T12:45:10;3.50;;;0.90;;
69188;SDS011;56302;52.322;5.926;2024-03-02T12:47:36;2.78;;;0.60;;
69188;SDS011;56302;52.322;5.926;2024-03-02T12:50:03;4.15;;;0.85;;
69188;SDS011;56302;52.322;5.926;2024-03-02T12:52:30;1.80;;;0.70;;
69188;SDS011;56302;52.322;5.926;2024-03-02T12:54:57;3.65;;;1.08;;
69188;SDS011;56302;52.322;5.926;2024-03-02T12:57:33;2.10;;;0.73;;
69188;SDS011;56302;52.322;5.926;2024-03-02T12:59:59;1.98;;;0.75;;
69188;SDS011;56302;52.322;5.926;2024-03-02T13:02:33;4.03;;;0.95;;
69188;SDS011;56302;52.322;5.926;2024-03-02T13:04:59;2.80;;;0.70;;
69188;SDS011;56302;52.322;5.926;2024-03-02T13:07:25;3.97;;;1.00;;
69188;SDS011;56302;52.322;5.926;2024-03-02T13:09:51;3.38;;;1.00;;
69188;SDS011;56302;52.322;5.926;2024-03-02T13:12:19;4.03;;;1.10;;
69188;SDS011;56302;52.322;5.926;2024-03-02T13:14:48;3.70;;;0.90;;
69188;SDS011;56302;52.322;5.926;2024-03-02T13:17:15;2.70;;;0.80;;
69188;SDS011;56302;52.322;5.926;2024-03-02T13:19:57;4.22;;;1.00;;
69188;SDS011;56302;52.322;5.926;2024-03-02T13:22:24;3.42;;;1.20;;
69188;SDS011;56302;52.322;5.926;2024-03-02T13:24:51;2.67;;;0.77;;
69188;SDS011;56302;52.322;5.926;2024-03-02T13:27:17;3.03;;;1.00;;
69188;SDS011;56302;52.322;5.926;2024-03-02T13:29:48;4.60;;;1.10;;
69188;SDS011;56302;52.322;5.926;2024-03-02T13:32:14;3.15;;;0.98;;
69188;SDS011;56302;52.322;5.926;2024-03-02T13:34:40;3.95;;;1.30;;
69188;SDS011;56302;52.322;5.926;2024-03-02T13:37:06;4.65;;;1.10;;
69188;SDS011;56302;52.322;5.926;2024-03-02T13:39:32;4.18;;;0.80;;
69188;SDS011;56302;52.322;5.926;2024-03-02T13:41:58;3.87;;;1.00;;
69188;SDS011;56302;52.322;5.926;2024-03-02T13:44:30;4.00;;;1.20;;
69188;SDS011;56302;52.322;5.926;2024-03-02T13:46:56;5.22;;;1.58;;
69188;SDS011;56302;52.322;5.926;2024-03-02T13:49:23;3.63;;;0.83;;
69188;SDS011;56302;52.322;5.926;2024-03-02T13:51:49;3.05;;;1.23;;
69188;SDS011;56302;52.322;5.926;2024-03-02T13:54:14;3.05;;;1.10;;
69188;SDS011;56302;52.322;5.926;2024-03-02T13:56:40;3.93;;;1.20;;
69188;SDS011;56302;52.322;5.926;2024-03-02T13:59:06;3.30;;;1.25;;
69188;SDS011;56302;52.322;5.926;2024-03-02T14:01:32;2.58;;;1.27;;
69188;SDS011;56302;52.322;5.926;2024-03-02T14:03:58;4.33;;;1.20;;
69188;SDS011;56302;52.322;5.926;2024-03-02T14:06:24;6.15;;;1.27;;
69188;SDS011;56302;52.322;5.926;2024-03-02T14:08:52;2.88;;;1.23;;
69188;SDS011;56302;52.322;5.926;2024-03-02T14:11:17;6.30;;;1.10;;
69188;SDS011;56302;52.322;5.926;2024-03-02T14:13:44;2.63;;;0.90;;
69188;SDS011;56302;52.322;5.926;2024-03-02T14:16:14;3.17;;;1.17;;
69188;SDS011;56302;52.322;5.926;2024-03-02T14:18:40;2.50;;;1.00;;
69188;SDS011;56302;52.322;5.926;2024-03-02T14:21:06;4.88;;;0.85;;
69188;SDS011;56302;52.322;5.926;2024-03-02T14:23:32;4.18;;;1.02;;
69188;SDS011;56302;52.322;5.926;2024-03-02T14:25:58;3.13;;;0.70;;
69188;SDS011;56302;52.322;5.926;2024-03-02T14:28:24;4.82;;;1.38;;
69188;SDS011;56302;52.322;5.926;2024-03-02T14:30:50;1.92;;;0.68;;
69188;SDS011;56302;52.322;5.926;2024-03-02T14:33:15;2.97;;;1.20;;
69188;SDS011;56302;52.322;5.926;2024-03-02T14:35:41;3.67;;;1.58;;
69188;SDS011;56302;52.322;5.926;2024-03-02T14:38:07;2.67;;;0.90;;
69188;SDS011;56302;52.322;5.926;2024-03-02T14:40:33;5.72;;;0.95;;
69188;SDS011;56302;52.322;5.926;2024-03-02T14:42:59;7.00;;;1.20;;
69188;SDS011;56302;52.322;5.926;2024-03-02T14:45:24;2.90;;;0.88;;
69188;SDS011;56302;52.322;5.926;2024-03-02T14:47:50;4.10;;;1.10;;
69188;SDS011;56302;52.322;5.926;2024-03-02T14:50:17;3.03;;;0.70;;
69188;SDS011;56302;52.322;5.926;2024-03-02T14:52:43;3.03;;;1.00;;
69188;SDS011;56302;52.322;5.926;2024-03-02T14:55:10;3.92;;;0.90;;
69188;SDS011;56302;52.322;5.926;2024-03-02T14:57:36;3.20;;;1.20;;
69188;SDS011;56302;52.322;5.926;2024-03-02T15:00:01;3.37;;;0.83;;
69188;SDS011;56302;52.322;5.926;2024-03-02T15:02:28;4.10;;;0.98;;
69188;SDS011;56302;52.322;5.926;2024-03-02T15:04:54;4.07;;;1.17;;